Rio Hacha, Riohacha Almirante Padilla Airport (SKRH)

NameRiohacha Almirante Padilla Airport
CityRio Hacha
CountryColombia
ICAOSKRH
IATARCH
Altitude13 m
CoordinatesGoogle Map
Live Air TrafficLiveATC.net
METARSKRH 221600Z 12006KT 9999 SCT015 32/22 A2988
2019-10-22 16:00:00 Wind: East-Southeast (120°) 3.09 m/s - Visibility: > 10000 m - Temperature: 32 °C - Dew point: 22 °C - Humidity: 55.5% - Pressure: 1011.85 hPa

Sorry, no flights used the airport in this database.